Time;durP1;ratioP1;P1;durP2;ratioP2;P2;SDS_P1;SDS_P2;PMS_P1;PMS_P2;Temp;Humidity;BMP_temperature;BMP_pressure;BME280_temperature;BME280_humidity;BME280_pressure;Samples;Min_cycle;Max_cycle;Signal;HPM_P1;HPM_P2
2022/06/23 00:00:20;;;;;;;9.15;4.80;;;;;;;19.02;60.68;100375.97;6217122;23;20056;-80
2022/06/23 00:02:47;;;;;;;7.15;4.97;;;;;;;18.98;60.85;100369.47;6217004;23;20052;-78
2022/06/23 00:05:18;;;;;;;7.60;5.00;;;;;;;18.94;61.08;100365.63;6217032;23;20024;-79
2022/06/23 00:07:48;;;;;;;8.68;4.97;;;;;;;18.94;61.12;100372.75;6221211;23;20044;-80
2022/06/23 00:10:17;;;;;;;9.18;5.63;;;;;;;18.88;61.42;100364.69;6221475;23;20055;-80
2022/06/23 00:12:46;;;;;;;8.15;5.35;;;;;;;18.94;61.36;100367.47;6219012;23;20461;-79
2022/06/23 00:15:37;;;;;;;7.00;5.20;;;;;;;18.87;61.96;100359.59;6219063;23;20048;-79
2022/06/23 00:18:06;;;;;;;10.07;5.10;;;;;;;18.80;62.35;100359.63;6219343;23;20024;-80
2022/06/23 00:20:46;;;;;;;7.70;5.13;;;;;;;18.81;61.86;100369.22;6219153;23;20032;-80
2022/06/23 00:23:18;;;;;;;8.48;4.80;;;;;;;18.89;60.76;100368.94;6218588;23;20487;-80
2022/06/23 00:25:47;;;;;;;;;;;;;;;18.96;61.33;100362.75;6220085;23;20025;-80
2022/06/23 00:28:19;;;;;;;6.78;4.80;;;;;;;18.89;61.56;100366.31;6219280;23;19915;-80
2022/06/23 00:30:52;;;;;;;8.18;4.93;;;;;;;18.87;61.30;100356.94;6219216;23;20052;-79
2022/06/23 00:33:21;;;;;;;8.02;5.13;;;;;;;18.90;61.38;100361.81;6217496;23;20485;-80
2022/06/23 00:35:49;;;;;;;6.80;5.43;;;;;;;18.90;62.24;100370.53;6218661;23;20056;-80
2022/06/23 00:38:27;;;;;;;8.77;5.13;;;;;;;18.92;62.61;100364.22;6219181;23;20024;-80
2022/06/23 00:40:56;;;;;;;8.20;5.18;;;;;;;18.95;62.81;100359.28;6218294;23;20047;-79
2022/06/23 00:43:26;;;;;;;9.25;5.72;;;;;;;18.93;62.19;100360.53;6219270;23;20409;-80
2022/06/23 00:45:58;;;;;;;11.07;5.53;;;;;;;18.95;61.96;100356.63;6221046;23;20353;-81
2022/06/23 00:48:31;;;;;;;8.27;5.72;;;;;;;18.91;62.43;100350.16;6218880;23;20017;-80
2022/06/23 00:51:05;;;;;;;7.03;5.07;;;;;;;18.94;64.03;100356.84;6219865;23;20024;-80
2022/06/23 00:53:36;;;;;;;6.88;5.25;;;;;;;19.00;63.98;100361.28;6218942;23;20342;-79
2022/06/23 00:56:10;;;;;;;6.25;5.10;;;;;;;18.88;64.27;100350.59;6219182;23;20048;-79
2022/06/23 00:58:43;;;;;;;6.65;4.95;;;;;;;18.83;64.20;100356.56;6219518;23;20024;-80
2022/06/23 01:01:16;;;;;;;9.65;5.28;;;;;;;18.79;63.81;100351.91;6218373;23;20017;-80
2022/06/23 01:03:52;;;;;;;8.40;5.13;;;;;;;18.65;63.91;100353.84;6219565;23;20417;-80
2022/06/23 01:06:26;;;;;;;7.88;4.85;;;;;;;18.61;64.20;100339.38;6218556;23;20059;-80
2022/06/23 01:08:56;;;;;;;9.73;5.25;;;;;;;18.55;63.98;100353.47;6218175;23;20103;-80
2022/06/23 01:11:29;;;;;;;6.78;5.32;;;;;;;18.48;64.43;100352.69;6219402;23;20443;-79
2022/06/23 01:14:11;;;;;;;5.88;5.20;;;;;;;18.43;64.42;100363.16;6219412;23;20021;-80
2022/06/23 01:16:44;;;;;;;6.72;5.57;;;;;;;18.36;64.59;100349.94;6218549;23;20361;-79
2022/06/23 01:19:31;;;;;;;7.70;5.22;;;;;;;18.39;64.46;100354.00;6218855;23;20036;-79
2022/06/23 01:22:02;;;;;;;8.27;5.43;;;;;;;18.43;63.81;100349.91;6219628;23;20032;-81
2022/06/23 01:24:35;;;;;;;8.85;5.63;;;;;;;18.39;64.65;100352.16;6220707;23;20032;-80
2022/06/23 01:27:16;;;;;;;8.00;5.25;;;;;;;18.31;64.60;100352.41;6218706;23;20461;-80
2022/06/23 01:29:48;;;;;;;6.47;5.18;;;;;;;18.26;64.98;100360.19;6219264;23;20024;-80
2022/06/23 01:32:19;;;;;;;10.20;5.45;;;;;;;18.23;64.63;100360.59;6218874;23;20451;-81
2022/06/23 01:34:52;;;;;;;10.30;5.53;;;;;;;18.26;65.38;100360.19;6218849;23;20021;-80
2022/06/23 01:37:25;;;;;;;9.82;5.72;;;;;;;18.25;65.61;100371.81;6217339;23;20589;-80
2022/06/23 01:40:02;;;;;;;8.52;5.03;;;;;;;18.26;65.01;100359.38;6215798;23;20064;-79
2022/06/23 01:42:38;;;;;;;6.57;5.25;;;;;;;18.31;64.73;100367.50;6216295;23;20481;-79
2022/06/23 01:45:10;;;;;;;9.13;5.70;;;;;;;18.31;64.88;100378.09;6216342;23;20021;-79
2022/06/23 01:47:43;;;;;;;8.02;5.82;;;;;;;18.32;64.92;100377.06;6215436;23;20152;-79
2022/06/23 01:50:36;;;;;;;6.43;5.13;;;;;;;18.39;64.75;100386.59;6217920;23;20035;-79
2022/06/23 01:53:24;;;;;;;6.88;4.90;;;;;;;18.45;64.41;100380.44;6217220;23;20025;-79
2022/06/23 01:56:15;;;;;;;7.03;5.60;;;;;;;18.38;64.38;100370.91;6218061;23;20020;-79
2022/06/23 01:58:52;;;;;;;5.80;5.10;;;;;;;18.38;64.74;100376.22;6219753;23;20024;-80
2022/06/23 02:01:27;;;;;;;8.90;5.18;;;;;;;18.35;64.81;100379.28;6221967;23;20168;-80
2022/06/23 02:04:03;;;;;;;8.07;5.50;;;;;;;18.32;65.11;100374.41;6221505;23;20167;-79
2022/06/23 02:06:39;;;;;;;7.15;5.10;;;;;;;18.26;65.35;100375.25;6219625;23;20035;-80
2022/06/23 02:09:18;;;;;;;8.05;5.25;;;;;;;18.30;65.28;100376.47;6221604;23;20020;-80
2022/06/23 02:11:48;;;;;;;8.30;5.30;;;;;;;18.29;65.31;100369.53;6222382;23;20027;-80
2022/06/23 02:14:24;;;;;;;7.28;4.97;;;;;;;18.27;65.15;100382.19;6222623;23;20132;-80
2022/06/23 02:16:58;;;;;;;7.28;5.90;;;;;;;18.26;65.31;100378.72;6222814;23;20024;-79
2022/06/23 02:19:34;;;;;;;6.07;5.25;;;;;;;18.22;65.40;100382.81;6219554;23;20063;-80
2022/06/23 02:22:10;;;;;;;7.65;5.22;;;;;;;18.27;65.28;100379.53;6221053;23;20025;-79
2022/06/23 02:24:45;;;;;;;9.18;5.32;;;;;;;18.26;65.17;100383.22;6220597;23;20535;-79
2022/06/23 02:27:18;;;;;;;5.80;4.93;;;;;;;18.26;64.93;100380.56;6219832;23;20059;-80
2022/06/23 02:29:53;;;;;;;7.22;5.07;;;;;;;18.29;64.95;100380.13;6219738;23;20487;-79
2022/06/23 02:32:27;;;;;;;8.43;5.28;;;;;;;18.29;64.56;100378.31;6214798;23;20021;-78
2022/06/23 02:35:00;;;;;;;6.78;5.22;;;;;;;18.34;64.24;100377.66;6214340;23;20052;-78
2022/06/23 02:37:44;;;;;;;;;;;;;;;18.34;64.02;100373.19;6214443;23;20394;-77
2022/06/23 02:40:17;;;;;;;8.48;5.63;;;;;;;18.31;64.30;100372.78;6214021;23;20348;-78
2022/06/23 02:42:48;;;;;;;5.95;5.13;;;;;;;18.30;65.22;100376.47;6214305;23;20116;-77
2022/06/23 02:45:35;;;;;;;10.05;5.68;;;;;;;18.23;65.25;100379.97;6214634;23;20063;-78
2022/06/23 02:48:31;;;;;;;7.50;5.65;;;;;;;18.21;65.78;100379.34;6216438;23;20063;-79
2022/06/23 02:51:11;;;;;;;7.55;5.30;;;;;;;18.22;65.89;100380.16;6220916;23;20028;-80
2022/06/23 02:53:53;;;;;;;7.93;5.47;;;;;;;18.22;66.04;100383.63;6220507;23;20528;-80
2022/06/23 02:56:40;;;;;;;7.25;5.10;;;;;;;18.15;66.29;100384.69;6223497;23;20055;-81
2022/06/23 02:59:13;;;;;;;7.63;5.50;;;;;;;18.12;66.26;100385.91;6218297;23;20021;-79
2022/06/23 03:01:43;;;;;;;;;;;;;;;18.13;66.23;100387.53;6217984;23;20016;-79
2022/06/23 03:04:17;;;;;;;9.60;5.60;;;;;;;18.13;66.73;100397.31;6218109;23;20265;-79
2022/06/23 03:06:48;;;;;;;9.77;5.88;;;;;;;18.10;66.74;100393.25;6219494;23;20028;-81
2022/06/23 03:09:20;;;;;;;7.00;5.63;;;;;;;18.08;66.85;100400.59;6223124;23;20025;-81
2022/06/23 03:11:55;;;;;;;;;;;;;;;18.09;66.68;100399.56;6225024;23;20021;-80
2022/06/23 03:14:32;;;;;;;10.10;5.30;;;;;;;18.10;67.10;100393.25;6229800;23;20037;-80
2022/06/23 03:17:05;;;;;;;7.30;5.50;;;;;;;18.09;66.82;100386.34;6228990;23;20087;-81
2022/06/23 03:19:37;;;;;;;8.55;5.55;;;;;;;18.06;67.25;100386.75;6220061;23;20029;-78
2022/06/23 03:22:09;;;;;;;6.88;5.38;;;;;;;18.11;66.96;100396.72;6217276;23;20059;-80
2022/06/23 03:24:42;;;;;;;8.75;5.32;;;;;;;18.09;67.33;100399.56;6218009;23;20017;-79
2022/06/23 03:29:41;;;;;;;7.57;5.70;;;;;;;18.15;67.18;100404.03;6230926;23;20020;-82
2022/06/23 03:32:13;;;;;;;6.72;5.60;;;;;;;18.14;66.81;100405.06;6233902;23;20031;-82
2022/06/23 03:34:47;;;;;;;9.23;5.35;;;;;;;18.15;66.95;100405.88;6233277;23;20055;-82
2022/06/23 03:37:18;;;;;;;6.45;5.63;;;;;;;18.17;67.03;100403.81;6233164;23;20020;-81
2022/06/23 03:42:39;;;;;;;7.10;5.50;;;;;;;18.22;66.31;100409.31;6231155;23;20030;-82
2022/06/23 03:45:15;;;;;;;9.25;5.25;;;;;;;18.17;66.14;100409.13;6229988;23;20077;-83
2022/06/23 03:47:49;;;;;;;7.50;5.45;;;;;;;18.17;65.90;100399.34;6233950;23;20096;-83
2022/06/23 03:50:24;;;;;;;9.90;5.65;;;;;;;18.22;65.91;100404.81;6233146;23;20012;-82
2022/06/23 03:52:56;;;;;;;8.55;5.53;;;;;;;18.20;65.95;100398.09;6233837;23;20158;-81
2022/06/23 03:55:26;;;;;;;6.43;5.28;;;;;;;18.25;65.50;100395.63;6230473;23;20024;-81
2022/06/23 03:57:57;;;;;;;11.85;5.70;;;;;;;18.34;65.14;100398.84;6230254;23;20036;-81
2022/06/23 04:00:30;;;;;;;11.43;5.93;;;;;;;18.38;64.91;100394.75;6231584;23;20061;-82
2022/06/23 04:03:09;;;;;;;8.30;5.45;;;;;;;18.53;64.78;100396.06;6233720;23;20020;-80
2022/06/23 04:06:13;;;;;;;8.55;5.30;;;;;;;18.74;64.04;100397.59;6236150;23;20037;-83
2022/06/23 04:08:48;;;;;;;9.63;4.82;;;;;;;19.16;62.70;100400.53;6221406;23;20020;-83
2022/06/23 04:14:06;;;;;;;6.22;4.57;;;;;;;20.75;57.97;100392.31;6228329;23;20035;-84
2022/06/23 04:16:35;;;;;;;7.45;4.90;;;;;;;21.30;55.68;100407.16;6230429;23;20266;-84
2022/06/23 04:19:08;;;;;;;9.48;4.90;;;;;;;21.81;54.30;100401.09;6230262;23;20025;-81
2022/06/23 04:21:35;;;;;;;5.22;4.55;;;;;;;21.79;53.79;100398.66;6231754;23;20017;-82
2022/06/23 04:24:13;;;;;;;8.27;4.63;;;;;;;21.77;53.93;100394.63;6233149;23;20034;-82
2022/06/23 04:26:43;;;;;;;7.10;5.00;;;;;;;21.75;53.73;100396.69;6232044;23;20107;-82
2022/06/23 04:29:12;;;;;;;6.53;4.93;;;;;;;22.03;52.50;100398.66;6230989;23;20080;-83
2022/06/23 04:31:43;;;;;;;6.80;4.65;;;;;;;22.64;51.54;100399.78;6229745;23;20076;-82
2022/06/23 04:34:20;;;;;;;8.35;5.15;;;;;;;22.32;52.05;100402.13;6226540;23;20032;-83
2022/06/23 04:36:47;;;;;;;9.38;4.50;;;;;;;22.22;52.62;100391.25;6229685;23;20058;-82
2022/06/23 04:39:25;;;;;;;7.35;4.70;;;;;;;21.95;52.94;100417.63;6229871;23;20025;-82
2022/06/23 04:41:59;;;;;;;6.85;4.40;;;;;;;21.58;53.86;100411.81;6229980;23;20024;-83
2022/06/23 04:44:29;;;;;;;8.10;4.63;;;;;;;21.40;54.32;100421.53;6228674;23;20068;-82
2022/06/23 04:47:00;;;;;;;6.72;4.93;;;;;;;21.97;52.95;100415.53;6228403;23;20075;-83
2022/06/23 04:49:38;;;;;;;7.88;4.55;;;;;;;21.92;53.09;100412.78;6224443;23;20079;-84
2022/06/23 04:52:13;;;;;;;9.00;4.65;;;;;;;22.72;52.14;100428.69;6224264;23;20499;-83
2022/06/23 04:54:49;;;;;;;6.50;4.70;;;;;;;23.03;52.52;100420.19;6222348;23;20025;-83
2022/06/23 04:57:20;;;;;;;7.63;5.03;;;;;;;23.32;50.34;100428.06;6223037;23;20020;-83
2022/06/23 04:59:51;;;;;;;6.10;4.72;;;;;;;23.27;49.94;100420.78;6222231;23;20353;-85
2022/06/23 05:02:31;;;;;;;4.97;4.30;;;;;;;23.33;50.54;100433.16;6220428;23;20017;-83
2022/06/23 05:05:05;;;;;;;8.07;4.60;;;;;;;24.05;48.86;100435.78;6220643;23;20083;-84
2022/06/23 05:07:37;;;;;;;9.70;4.75;;;;;;;23.99;49.53;100428.75;6216962;23;20024;-84
2022/06/23 05:10:08;;;;;;;9.95;4.80;;;;;;;24.16;49.34;100434.81;6218729;23;20055;-84
2022/06/23 05:12:38;;;;;;;8.98;4.78;;;;;;;23.23;50.80;100430.34;6216481;23;20021;-84
2022/06/23 05:15:14;;;;;;;9.45;4.70;;;;;;;22.73;52.79;100428.44;6218369;23;20024;-84
2022/06/23 05:17:50;;;;;;;11.05;5.22;;;;;;;23.49;51.12;100426.19;6220466;23;20032;-84
2022/06/23 05:20:33;;;;;;;8.88;4.78;;;;;;;23.77;49.64;100419.91;6236533;23;20024;-87
2022/06/23 05:23:02;;;;;;;8.63;5.25;;;;;;;23.73;49.74;100424.13;6230062;23;20016;-83
2022/06/23 05:25:37;;;;;;;13.85;4.78;;;;;;;23.52;50.02;100422.22;6215563;23;20020;-86
2022/06/23 05:28:08;;;;;;;12.32;4.80;;;;;;;23.82;48.95;100428.81;6219734;23;20310;-86
2022/06/23 05:30:40;;;;;;;8.38;5.32;;;;;;;24.08;48.24;100423.78;6216876;23;20051;-85
2022/06/23 05:33:14;;;;;;;6.47;4.78;;;;;;;24.67;47.39;100429.22;6223293;23;20020;-85
2022/06/23 05:35:46;;;;;;;6.18;4.63;;;;;;;24.89;47.23;100421.91;6217242;23;20126;-85
2022/06/23 05:38:23;;;;;;;8.50;4.50;;;;;;;26.01;45.80;100422.59;6216485;23;20028;-85
2022/06/23 05:40:55;;;;;;;10.07;4.80;;;;;;;26.34;45.27;100426.78;6218816;23;20430;-84
2022/06/23 05:43:23;;;;;;;7.00;4.25;;;;;;;27.55;42.89;100436.69;6219300;23;20020;-83
2022/06/23 05:45:52;;;;;;;10.30;4.72;;;;;;;27.59;42.47;100440.47;6218191;23;20127;-81
2022/06/23 05:48:24;;;;;;;13.43;4.75;;;;;;;26.96;42.62;100428.44;6217806;23;20539;-82
2022/06/23 05:50:54;;;;;;;16.02;5.40;;;;;;;27.39;42.87;100435.94;6215260;23;20068;-82
2022/06/23 05:53:28;;;;;;;12.95;4.95;;;;;;;26.57;43.64;100433.50;6215331;23;20059;-83
2022/06/23 05:56:07;;;;;;;6.72;4.88;;;;;;;26.23;44.80;100430.47;6215362;23;20474;-82
2022/06/23 05:58:55;;;;;;;19.33;6.32;;;;;;;28.06;41.47;100415.00;6214253;23;20028;-84
2022/06/23 06:01:34;;;;;;;7.90;5.32;;;;;;;27.27;42.65;100426.56;6217062;23;20323;-83
2022/06/23 06:04:04;;;;;;;11.38;5.53;;;;;;;26.93;43.81;100402.94;6222512;23;20388;-85
2022/06/23 06:06:32;;;;;;;10.27;5.68;;;;;;;26.31;44.65;100405.84;6226683;23;20021;-84
2022/06/23 06:11:59;;;;;;;6.65;4.80;;;;;;;27.47;44.09;100414.94;6227052;23;20035;-85
2022/06/23 06:14:29;;;;;;;12.57;5.53;;;;;;;26.60;44.73;100401.56;6225886;23;20025;-86
2022/06/23 06:16:57;;;;;;;12.65;6.10;;;;;;;25.77;47.26;100416.91;6227454;23;20027;-83
2022/06/23 06:19:30;;;;;;;9.32;6.07;;;;;;;26.69;46.29;100413.38;6229475;23;20047;-85
2022/06/23 06:21:59;;;;;;;8.77;5.45;;;;;;;27.80;43.91;100400.88;6231160;23;20067;-83
2022/06/23 06:27:48;;;;;;;10.85;5.40;;;;;;;29.45;39.97;100435.25;6229618;23;20083;-84
2022/06/23 06:30:18;;;;;;;12.07;5.97;;;;;;;27.79;43.59;100420.78;6231863;23;20020;-85
2022/06/23 06:32:47;;;;;;;8.65;5.40;;;;;;;27.97;44.30;100427.41;6230382;23;20035;-82
2022/06/23 06:35:25;;;;;;;13.73;6.03;;;;;;;27.67;44.35;100417.59;6230655;23;20078;-86
2022/06/23 06:37:56;;;;;;;9.23;5.82;;;;;;;28.72;41.47;100423.50;6231593;23;20028;-83
2022/06/23 06:40:23;;;;;;;13.18;5.97;;;;;;;28.81;42.48;100404.84;6228665;23;20094;-85
2022/06/23 06:42:55;;;;;;;12.32;5.78;;;;;;;27.16;45.61;100401.56;6229510;23;20020;-83
2022/06/23 06:45:27;;;;;;;10.27;6.03;;;;;;;28.71;43.75;100427.25;6229488;23;20028;-83
2022/06/23 06:47:54;;;;;;;11.90;6.50;;;;;;;28.85;43.02;100405.09;6229949;23;20188;-82
2022/06/23 06:50:29;;;;;;;13.93;5.70;;;;;;;27.91;45.31;100423.94;6228625;23;20024;-83
2022/06/23 06:52:58;;;;;;;11.93;6.10;;;;;;;28.22;44.56;100421.16;6228763;23;20031;-82
2022/06/23 06:55:30;;;;;;;11.90;5.97;;;;;;;28.17;44.92;100418.44;6229935;23;20059;-83
2022/06/23 06:58:03;;;;;;;12.98;6.20;;;;;;;28.04;45.40;100412.59;6229748;23;20021;-82
2022/06/23 07:00:35;;;;;;;9.90;6.05;;;;;;;27.85;45.18;100408.94;6230162;23;20120;-83
2022/06/23 07:03:06;;;;;;;10.50;5.65;;;;;;;27.29;47.07;100411.78;6227484;23;20074;-83
2022/06/23 07:05:40;;;;;;;10.90;6.03;;;;;;;27.64;45.67;100412.78;6227835;23;20035;-83
2022/06/23 07:08:11;;;;;;;8.63;5.70;;;;;;;28.91;44.75;100414.72;6228128;23;20020;-82
2022/06/23 07:10:45;;;;;;;12.45;5.68;;;;;;;29.43;42.43;100413.16;6228156;23;20052;-80
2022/06/23 07:13:20;;;;;;;14.20;5.88;;;;;;;28.46;43.74;100418.56;6230919;23;20032;-82
2022/06/23 07:15:52;;;;;;;14.10;6.13;;;;;;;28.33;43.67;100420.81;6223594;23;20025;-83
2022/06/23 07:18:20;;;;;;;;;;;;;;;28.54;43.71;100420.66;6220463;23;20040;-83
2022/06/23 07:20:54;;;;;;;10.32;5.82;;;;;;;28.30;45.39;100415.97;6218681;23;19916;-82
2022/06/23 07:23:25;;;;;;;14.18;5.85;;;;;;;29.38;42.69;100414.81;6223590;23;20284;-82
2022/06/23 07:25:57;;;;;;;19.13;7.18;;;;;;;28.77;44.27;100413.75;6226477;23;20362;-82
2022/06/23 07:28:35;;;;;;;15.45;6.53;;;;;;;28.22;45.04;100424.63;6228393;23;20028;-82
2022/06/23 07:31:07;;;;;;;15.38;6.63;;;;;;;28.17;45.69;100415.75;6230540;23;20024;-82
2022/06/23 07:33:41;;;;;;;10.15;6.53;;;;;;;27.84;46.44;100423.47;6229590;23;20123;-81
2022/06/23 07:36:15;;;;;;;11.35;5.95;;;;;;;28.46;45.12;100413.97;6230428;23;20080;-82
2022/06/23 07:38:47;;;;;;;11.80;6.03;;;;;;;28.50;45.10;100409.66;6228806;23;20043;-83
2022/06/23 07:41:19;;;;;;;15.35;6.28;;;;;;;28.60;45.00;100411.47;6228908;23;20438;-83
2022/06/23 07:43:53;;;;;;;14.77;6.68;;;;;;;29.25;43.65;100403.91;6231481;23;20020;-84
2022/06/23 07:46:20;;;;;;;13.95;6.60;;;;;;;29.24;44.30;100407.69;6231272;23;20024;-83
2022/06/23 07:48:46;;;;;;;19.95;7.18;;;;;;;29.15;44.63;100396.72;6231049;23;20021;-84
2022/06/23 07:51:14;;;;;;;20.75;7.05;;;;;;;28.87;45.12;100409.09;6231065;23;20378;-81
2022/06/23 07:53:44;;;;;;;14.95;6.60;;;;;;;28.94;45.41;100403.38;6231018;23;20043;-84
2022/06/23 07:56:14;;;;;;;16.73;6.82;;;;;;;30.33;42.53;100394.22;6229430;23;20024;-84
2022/06/23 07:58:42;;;;;;;15.70;7.10;;;;;;;31.41;40.17;100399.44;6226955;23;20024;-85
2022/06/23 08:01:21;;;;;;;19.40;6.78;;;;;;;31.15;40.76;100402.66;6228896;23;20154;-83
2022/06/23 08:03:56;;;;;;;15.77;6.70;;;;;;;30.98;40.68;100399.69;6230042;23;20021;-81
2022/06/23 08:06:24;;;;;;;14.23;6.30;;;;;;;29.97;42.22;100378.50;6229566;23;20392;-84
2022/06/23 08:08:55;;;;;;;14.48;6.63;;;;;;;29.10;44.36;100385.22;6229644;23;20084;-84
2022/06/23 08:14:15;;;;;;;10.77;5.80;;;;;;;30.06;43.28;100386.78;6230595;23;20213;-85
2022/06/23 08:16:50;;;;;;;21.92;6.93;;;;;;;29.41;44.06;100391.91;6231869;23;20027;-85
2022/06/23 08:19:27;;;;;;;12.30;6.93;;;;;;;28.51;45.51;100408.56;6228099;23;20071;-84
2022/06/23 08:22:00;;;;;;;15.45;7.03;;;;;;;29.71;44.17;100393.44;6228541;23;20076;-85
2022/06/23 08:24:27;;;;;;;10.75;6.38;;;;;;;29.40;44.57;100385.66;6229702;23;20020;-84
2022/06/23 08:26:58;;;;;;;17.35;6.93;;;;;;;30.27;42.92;100387.28;6232127;23;20012;-84
2022/06/23 08:29:29;;;;;;;17.08;6.70;;;;;;;31.83;39.73;100392.94;6232952;23;20327;-84
2022/06/23 08:31:57;;;;;;;12.23;6.38;;;;;;;32.08;39.55;100383.47;6233610;23;20068;-84
2022/06/23 08:34:24;;;;;;;16.70;6.95;;;;;;;32.77;37.66;100405.69;6233349;23;20025;-84
2022/06/23 08:36:57;;;;;;;13.57;6.82;;;;;;;32.28;37.71;100380.31;6231318;23;20033;-83
2022/06/23 08:39:35;;;;;;;17.05;8.95;;;;;;;30.63;41.39;100385.69;6233205;23;20028;-83
2022/06/23 08:42:13;;;;;;;8.55;6.97;;;;;;;30.25;42.20;100378.69;6233194;23;20029;-83
2022/06/23 08:44:44;;;;;;;12.23;7.28;;;;;;;29.25;44.59;100377.78;6233695;23;20027;-85
2022/06/23 08:47:19;;;;;;;15.48;7.65;;;;;;;29.80;41.62;100375.50;6235725;23;20025;-81
2022/06/23 08:49:54;;;;;;;15.25;6.68;;;;;;;31.07;40.20;100395.19;6232575;23;20450;-85
2022/06/23 08:52:31;;;;;;;13.02;6.30;;;;;;;32.08;36.86;100386.16;6230393;23;20025;-84
2022/06/23 08:55:03;;;;;;;13.50;6.40;;;;;;;31.93;36.72;100374.56;6230790;23;20571;-83
2022/06/23 08:57:32;;;;;;;;;;;;;;;32.55;35.40;100384.81;6229187;23;20025;-83
2022/06/23 09:00:04;;;;;;;12.52;6.50;;;;;;;31.40;37.01;100371.59;6228623;23;19916;-84
2022/06/23 09:02:36;;;;;;;;;;;;;;;31.54;35.57;100377.00;6230207;23;20043;-85
2022/06/23 09:05:08;;;;;;;15.95;6.60;;;;;;;32.02;34.81;100387.38;6229379;23;19936;-84
2022/06/23 09:07:46;;;;;;;15.55;6.20;;;;;;;31.56;34.82;100370.19;6230022;23;20072;-84
2022/06/23 09:10:25;;;;;;;23.02;8.57;;;;;;;31.41;35.54;100367.00;6230212;23;20028;-84
2022/06/23 09:12:58;;;;;;;12.35;6.22;;;;;;;30.99;35.41;100371.56;6230827;23;20025;-83
2022/06/23 09:15:51;;;;;;;9.93;6.13;;;;;;;31.10;35.54;100374.88;6227855;23;20342;-81
2022/06/23 09:18:45;;;;;;;15.50;7.13;;;;;;;31.41;35.63;100370.50;6227001;23;20017;-85
2022/06/23 09:21:27;;;;;;;10.95;6.15;;;;;;;30.62;36.26;100373.28;6225856;23;20074;-85
2022/06/23 09:24:26;;;;;;;10.30;6.90;;;;;;;31.15;36.06;100370.22;6224430;23;20017;-85
2022/06/23 09:26:59;;;;;;;16.00;6.45;;;;;;;30.21;37.72;100365.00;6179517;23;20032;-84
2022/06/23 09:29:42;;;;;;;11.30;6.25;;;;;;;31.43;35.86;100367.50;6216866;23;20040;-81
2022/06/23 09:32:20;;;;;;;14.70;7.50;;;;;;;30.47;37.39;100360.00;6223217;23;20020;-81
2022/06/23 09:35:06;;;;;;;11.93;6.20;;;;;;;30.43;37.80;100352.78;6221241;23;20052;-82
2022/06/23 09:38:15;;;;;;;15.13;6.95;;;;;;;29.89;38.49;100357.59;6221426;23;20048;-82
2022/06/23 09:40:56;;;;;;;9.70;6.55;;;;;;;30.00;38.26;100351.00;6221889;23;20047;-81
2022/06/23 09:43:55;;;;;;;8.70;6.40;;;;;;;30.02;38.05;100356.09;6222622;23;20020;-82
2022/06/23 09:46:48;;;;;;;10.68;6.00;;;;;;;31.12;36.92;100346.44;6226877;23;20016;-80
2022/06/23 09:49:43;;;;;;;10.38;6.18;;;;;;;30.26;36.49;100358.69;6223296;23;20496;-82
2022/06/23 09:52:48;;;;;;;19.48;6.70;;;;;;;29.74;36.86;100341.63;6228513;23;20465;-82
2022/06/23 09:55:29;;;;;;;7.63;5.85;;;;;;;29.82;37.00;100340.97;6229108;23;20052;-83
2022/06/23 09:58:40;;;;;;;30.10;8.60;;;;;;;30.86;36.76;100334.50;6223397;23;20035;-82
2022/06/23 10:01:18;;;;;;;12.63;6.03;;;;;;;30.14;37.26;100340.28;6223277;23;20025;-81
2022/06/23 10:04:03;;;;;;;13.30;6.13;;;;;;;30.45;37.01;100351.38;6224925;23;20021;-83
2022/06/23 10:06:56;;;;;;;44.05;11.23;;;;;;;31.01;35.54;100343.13;6225157;23;20036;-82
2022/06/23 10:09:48;;;;;;;8.95;6.05;;;;;;;30.72;35.72;100333.69;6224242;23;20059;-84
2022/06/23 10:12:34;;;;;;;7.30;6.13;;;;;;;31.87;34.61;100331.69;6223261;23;20365;-83
2022/06/23 10:15:16;;;;;;;14.40;6.05;;;;;;;32.35;33.17;100323.81;6224100;23;20052;-83
2022/06/23 10:18:04;;;;;;;9.43;6.43;;;;;;;31.72;35.27;100330.13;6224866;23;20024;-84
2022/06/23 10:21:00;;;;;;;11.18;5.88;;;;;;;31.86;35.32;100339.00;6223742;23;20025;-83
2022/06/23 10:23:45;;;;;;;10.32;6.22;;;;;;;32.09;33.82;100339.84;6223915;23;20473;-80
2022/06/23 10:26:26;;;;;;;10.00;6.13;;;;;;;31.93;33.85;100350.22;6224682;23;20106;-84
2022/06/23 10:29:15;;;;;;;10.65;6.20;;;;;;;30.93;36.00;100333.00;6224249;23;20430;-82
2022/06/23 10:32:06;;;;;;;10.15;6.13;;;;;;;31.77;35.43;100327.31;6222294;23;20020;-84
2022/06/23 10:34:47;;;;;;;17.52;5.97;;;;;;;31.17;34.69;100334.78;6219580;23;20021;-81
2022/06/23 10:37:37;;;;;;;13.82;7.13;;;;;;;31.14;35.10;100316.47;6221324;23;20064;-82
2022/06/23 10:40:34;;;;;;;11.63;6.38;;;;;;;31.35;35.95;100318.44;6222706;23;20075;-82
2022/06/23 10:43:19;;;;;;;8.98;5.60;;;;;;;32.01;35.28;100318.94;6221991;23;20028;-81
2022/06/23 10:45:51;;;;;;;13.65;6.40;;;;;;;30.81;35.92;100313.78;6222459;23;20424;-81
2022/06/23 10:48:45;;;;;;;10.55;6.10;;;;;;;31.18;34.97;100315.56;6221616;23;20480;-79
2022/06/23 10:51:48;;;;;;;8.75;6.00;;;;;;;30.92;35.21;100317.09;6221643;23;20036;-83
2022/06/23 10:54:37;;;;;;;11.57;6.10;;;;;;;31.01;35.00;100304.50;6192584;23;20028;-81
2022/06/23 10:57:34;;;;;;;15.52;6.47;;;;;;;31.44;35.94;100318.53;6221802;23;20075;-83
2022/06/23 11:00:10;;;;;;;11.25;5.85;;;;;;;31.29;34.97;100314.22;6212931;23;20030;-80
2022/06/23 11:03:02;;;;;;;10.75;6.45;;;;;;;31.08;35.83;100302.22;6221752;23;20076;-81
2022/06/23 11:05:42;;;;;;;11.23;5.93;;;;;;;30.31;36.71;100300.03;6220792;23;20020;-79
2022/06/23 11:08:37;;;;;;;12.80;5.80;;;;;;;30.51;35.99;100312.41;6226029;23;20469;-81
2022/06/23 11:11:29;;;;;;;11.73;5.40;;;;;;;31.75;34.73;100307.06;6224429;23;20024;-82
2022/06/23 11:14:06;;;;;;;15.60;5.90;;;;;;;30.90;36.62;100297.69;6225710;23;20025;-81
2022/06/23 11:16:44;;;;;;;10.73;6.00;;;;;;;31.28;35.87;100304.53;6229275;23;20024;-80
2022/06/23 11:19:39;;;;;;;10.23;6.15;;;;;;;30.99;36.07;100302.09;6228514;23;20020;-80
2022/06/23 11:22:29;;;;;;;8.48;6.07;;;;;;;30.78;36.39;100302.78;6226757;23;20059;-78
2022/06/23 11:25:08;;;;;;;10.85;6.22;;;;;;;31.14;35.84;100286.72;6227849;23;20401;-83
2022/06/23 11:27:53;;;;;;;14.18;6.13;;;;;;;30.91;37.23;100266.88;6234541;23;20013;-82
2022/06/23 11:30:34;;;;;;;12.48;6.32;;;;;;;30.91;36.90;100288.47;6242082;23;20062;-84
2022/06/23 11:33:37;;;;;;;13.23;5.97;;;;;;;30.87;36.17;100272.06;6241729;23;20020;-82
2022/06/23 11:36:15;;;;;;;10.15;5.90;;;;;;;31.19;36.81;100287.44;6171835;23;20066;-82
2022/06/23 11:39:02;;;;;;;12.38;6.35;;;;;;;31.20;37.33;100277.38;6161837;23;20053;-83
2022/06/23 11:41:59;;;;;;;10.88;6.57;;;;;;;32.02;35.20;100292.66;6218791;23;20024;-81
2022/06/23 11:44:41;;;;;;;10.13;6.10;;;;;;;31.13;36.14;100255.41;6224137;23;20043;-82
2022/06/23 11:47:22;;;;;;;;;;;;;;;31.66;35.19;100285.34;6222671;23;20020;-79
2022/06/23 11:50:03;;;;;;;14.23;6.97;;;;;;;31.52;36.78;100254.81;6223491;23;19916;-80
2022/06/23 11:52:58;;;;;;;14.80;5.80;;;;;;;31.33;35.64;100269.28;6222766;23;20017;-79
2022/06/23 11:55:43;;;;;;;10.80;6.03;;;;;;;31.21;36.03;100258.16;6222900;23;20023;-82
2022/06/23 11:58:32;;;;;;;11.77;6.15;;;;;;;31.58;35.49;100256.31;6221891;23;20024;-82
2022/06/23 12:01:14;;;;;;;11.68;5.72;;;;;;;31.29;35.79;100238.53;6224161;23;20032;-80
2022/06/23 12:04:07;;;;;;;14.48;6.57;;;;;;;32.17;35.91;100243.56;6219761;23;20029;-81
2022/06/23 12:06:46;;;;;;;11.10;6.38;;;;;;;31.26;36.54;100252.66;6220066;23;20074;-80
2022/06/23 12:09:27;;;;;;;13.07;5.78;;;;;;;32.09;36.51;100258.66;6219622;23;20032;-80
2022/06/23 12:12:06;;;;;;;12.18;7.18;;;;;;;31.77;36.80;100248.84;6222370;23;20024;-81
2022/06/23 12:14:38;;;;;;;15.48;7.10;;;;;;;30.63;37.21;100228.25;6223876;23;20044;-80
2022/06/23 12:17:31;;;;;;;12.45;6.57;;;;;;;31.16;37.21;100255.59;6225778;23;20039;-81
2022/06/23 12:20:12;;;;;;;12.40;6.30;;;;;;;31.69;36.77;100227.94;6230894;23;20058;-83
2022/06/23 12:22:58;;;;;;;9.20;7.38;;;;;;;31.63;36.22;100245.38;6238873;23;20388;-84
2022/06/23 12:26:08;;;;;;;16.52;6.20;;;;;;;31.96;35.96;100232.44;6241878;23;20032;-85